Superior, WI

3:37 AM CDT on August 29, 2014 (GMT -0500)
Bong | Change Station
CLOSE
Current Station
Airport
Location: Superior,
Elevation: 673 ft
Nearby Weather Stations

Elev 673 ft 46.68 °N, 92.09 °W | Updated 22 minutes ago

Overcast
Overcast
62 °F
Feels Like 62 °F
N
7
Wind Variable Wind from NE

Today
High -- | Low -- °F
--% Chance of Precip.
Yesterday
High -- | Low -- °F
Precip. -- in
6:24 AM 7:53 PM
Waxing Crescent, 13% visible
Pressure 29.87 in
Visibility 10.0 miles
Clouds Overcast 1500 ft
Dew Point 59 °F
Humidity 93%
Rainfall 0.00 in
Snow Depth Not available.
UV 0 out of 12
Pollen 7.90 out of 12
Air Quality Not available.
Flu Activity Not available.
METAR KSUW 290815Z AUTO 04006KT 10SM OVC015 16/15 A2987 RMK AO2 T01640152

More Conditions Fewer Conditions

Pressure 29.87 in
Visibility 10.0 miles
Clouds Overcast 1500 ft
Dew Point 59 °F
Humidity 93%
Rainfall 0.00 in
Snow Depth Not available.
UV 0 out of 12
Pollen 7.90 out of 12
Air Quality Not available.
Flu Activity Not available.
METAR KSUW 290815Z AUTO 04006KT 10SM OVC015 16/15 A2987 RMK AO2 T01640152

More Conditions Fewer Conditions

10-Day Weather Forecast

Almanac

Astronomy

Aug. 29, 2014 Rise Set
Actual Time 6:24 AM CDT 7:53 PM CDT
Civil Twilight 5:52 AM CDT 8:24 PM CDT
Nautical Twilight 5:14 AM CDT 9:02 PM CDT
Astronomical Twilight 4:33 AM CDT 9:43 PM CDT
Moon 10:30 AM CDT 9:33 PM CDT
Length of Visible Light 14h 32m
Length of Day
13h 28m
Tomorrow will be 3m 11s shorter.
Waxing Crescent, 13% of the Moon is Illuminated
Today
Waxing Crescent
Sep 2
First Quarter
Sep 8
Full
Sep 15
Last Quarter
Sep 24
New

Today's Extremes

State Highs State Lows

Community

WunderPhotos

Upload Photos

1,748,197 photos uploaded!

Nearby

Snow Depth

Station Depth Elevation
No new snow has been reported.

Earthquake Activity

City Distance Mag. Time & Date
No recent earthquake activity has been reported nearby.
Minimum magnitude displayed is 2.5.

Coastal Water Temperatures

Place Temperature
Duluth, MN 64.9 °F

Nearby Weather Stations